Time;durP1;ratioP1;P1;durP2;ratioP2;P2;SDS_P1;SDS_P2;PMS_P1;PMS_P2;Temp;Humidity;BMP_temperature;BMP_pressure;BME280_temperature;BME280_humidity;BME280_pressure;Samples;Min_cycle;Max_cycle;Signal;HPM_P1;HPM_P2
2021/04/08 00:00:09;;;;;;;29.10;22.82;;;;;;;4.95;69.95;100178.97;1774970;80;21006;-74
2021/04/08 00:02:42;;;;;;;26.23;19.12;;;;;;;4.92;70.37;100171.33;1775198;80;20985;-74
2021/04/08 00:05:12;;;;;;;23.27;18.20;;;;;;;4.91;70.21;100160.56;1774934;80;21045;-74
2021/04/08 00:07:41;;;;;;;23.77;18.20;;;;;;;4.89;70.23;100157.61;1775163;80;21038;-74
2021/04/08 00:10:11;;;;;;;27.22;19.12;;;;;;;4.88;70.26;100157.23;1775008;80;21376;-74
2021/04/08 00:12:40;;;;;;;22.13;16.77;;;;;;;4.88;70.17;100163.73;1775132;80;21496;-74
2021/04/08 00:15:12;;;;;;;24.18;17.80;;;;;;;4.89;70.12;100181.00;1775012;80;21002;-75
2021/04/08 00:17:41;;;;;;;24.40;18.82;;;;;;;4.89;70.12;100193.55;1774909;80;21034;-74
2021/04/08 00:20:16;;;;;;;24.40;18.60;;;;;;;4.93;70.28;100217.63;1775039;79;20930;-73
2021/04/08 00:22:44;;;;;;;25.90;19.23;;;;;;;4.97;70.11;100237.37;1775231;80;21368;-74
2021/04/08 00:25:13;;;;;;;26.27;19.40;;;;;;;4.97;69.92;100234.32;1774920;79;21014;-74
2021/04/08 00:27:43;;;;;;;27.25;19.77;;;;;;;4.96;69.87;100240.91;1775085;80;21420;-74
2021/04/08 00:30:12;;;;;;;28.87;20.55;;;;;;;4.96;69.77;100243.50;1774964;80;21026;-74
2021/04/08 00:32:40;;;;;;;21.93;18.40;;;;;;;4.91;69.46;100245.43;1775235;79;21543;-74
2021/04/08 00:35:11;;;;;;;21.75;15.83;;;;;;;4.87;69.57;100242.14;1774981;80;21364;-74
2021/04/08 00:37:39;;;;;;;20.55;15.28;;;;;;;4.88;69.82;100235.18;1780391;79;20946;-74
2021/04/08 00:40:11;;;;;;;19.10;15.13;;;;;;;4.88;69.87;100236.48;1788927;80;20934;-74
2021/04/08 00:42:40;;;;;;;20.68;17.37;;;;;;;4.85;69.85;100245.25;1788883;80;21340;-74
2021/04/08 00:45:09;;;;;;;25.45;19.57;;;;;;;4.86;69.97;100240.89;1788856;80;20900;-73
2021/04/08 00:47:38;;;;;;;22.00;17.73;;;;;;;4.86;69.96;100249.98;1788876;80;21366;-73
2021/04/08 00:50:08;;;;;;;24.67;18.37;;;;;;;4.89;69.68;100258.94;1788650;80;21511;-73
2021/04/08 00:52:37;;;;;;;22.05;17.95;;;;;;;4.86;69.54;100256.02;1788704;80;20954;-73
2021/04/08 00:55:06;;;;;;;23.30;17.60;;;;;;;4.87;69.65;100260.75;1788713;80;20934;-74
2021/04/08 00:57:35;;;;;;;18.92;14.25;;;;;;;4.86;69.60;100256.02;1788756;79;20938;-73
2021/04/08 01:00:06;;;;;;;20.10;15.10;;;;;;;4.84;69.46;100264.33;1788719;80;21518;-73
2021/04/08 01:02:35;;;;;;;20.68;15.68;;;;;;;4.78;69.43;100266.75;1788824;80;21460;-73
2021/04/08 01:05:04;;;;;;;20.70;16.57;;;;;;;4.72;69.59;100261.80;1788705;80;21006;-73
2021/04/08 01:07:37;;;;;;;18.67;14.40;;;;;;;4.69;69.56;100271.03;1788793;79;21495;-75
2021/04/08 01:10:08;;;;;;;20.02;15.90;;;;;;;4.67;69.72;100278.04;1788941;80;20954;-72
2021/04/08 01:12:36;;;;;;;20.50;15.70;;;;;;;4.68;69.79;100286.20;1788792;80;21267;-73
2021/04/08 01:15:06;;;;;;;19.62;16.25;;;;;;;4.68;69.82;100296.59;1788694;80;20989;-73
2021/04/08 01:17:54;;;;;;;22.05;16.55;;;;;;;4.70;69.87;100291.34;1788754;79;20958;-74
2021/04/08 01:20:49;;;;;;;23.18;18.00;;;;;;;4.69;69.69;100308.69;1788790;80;21551;-73
2021/04/08 01:24:09;;;;;;;23.25;16.95;;;;;;;4.68;69.71;100321.73;1788919;80;20942;-74
2021/04/08 01:27:08;;;;;;;18.42;15.08;;;;;;;4.67;69.79;100326.52;1788795;79;21344;-73
2021/04/08 01:29:48;;;;;;;18.70;14.18;;;;;;;4.65;69.68;100317.97;1788032;80;21479;-74
2021/04/08 01:32:18;;;;;;;14.28;12.63;;;;;;;4.65;69.83;100323.16;1788800;80;20942;-74
2021/04/08 01:34:49;;;;;;;20.05;14.25;;;;;;;4.63;69.84;100332.30;1760875;80;21021;-72
2021/04/08 01:37:28;;;;;;;18.75;15.18;;;;;;;4.64;69.99;100336.58;1787492;80;21475;-74
2021/04/08 01:39:57;;;;;;;19.23;15.63;;;;;;;4.67;69.78;100330.41;1774997;80;21819;-73
2021/04/08 01:42:26;;;;;;;20.80;15.80;;;;;;;4.66;69.72;100322.24;1753325;80;20927;-74
2021/04/08 01:44:55;;;;;;;20.75;17.05;;;;;;;4.64;69.64;100321.45;1775168;80;20990;-74
2021/04/08 01:47:24;;;;;;;23.60;16.67;;;;;;;4.61;69.60;100322.89;1774910;79;21042;-74
2021/04/08 01:49:53;;;;;;;20.37;16.37;;;;;;;4.56;69.78;100335.60;1753422;80;20994;-75
2021/04/08 01:52:21;;;;;;;24.50;17.95;;;;;;;4.50;69.75;100328.05;1774950;80;21364;-75
2021/04/08 01:54:55;;;;;;;20.70;16.15;;;;;;;4.47;69.78;100340.29;1775024;80;21504;-74
2021/04/08 01:57:23;;;;;;;19.50;15.25;;;;;;;4.45;69.93;100344.73;1775014;80;21413;-75
2021/04/08 01:59:51;;;;;;;19.73;15.50;;;;;;;4.46;70.08;100349.00;1774861;80;21058;-74
2021/04/08 02:02:19;;;;;;;22.02;14.75;;;;;;;4.48;70.12;100354.98;1775039;80;20945;-74
2021/04/08 02:04:47;;;;;;;25.92;16.90;;;;;;;4.51;70.18;100343.16;1774875;80;21189;-74
2021/04/08 02:07:15;;;;;;;22.55;17.80;;;;;;;4.53;69.93;100352.58;1774721;79;21018;-75
2021/04/08 02:09:43;;;;;;;22.95;16.95;;;;;;;4.55;69.82;100364.22;1775114;79;21468;-74
2021/04/08 02:12:12;;;;;;;26.20;19.90;;;;;;;4.55;69.68;100366.81;1720443;80;20963;-74
2021/04/08 02:14:40;;;;;;;22.80;16.70;;;;;;;4.50;69.74;100368.30;1774905;80;21274;-74
2021/04/08 02:17:09;;;;;;;33.30;19.60;;;;;;;4.47;69.52;100372.75;1775035;80;21368;-75
2021/04/08 02:19:37;;;;;;;28.27;21.02;;;;;;;4.42;69.57;100379.87;1774881;80;20919;-74
2021/04/08 02:22:05;;;;;;;28.83;21.15;;;;;;;4.37;69.87;100378.75;1774909;80;20954;-74
2021/04/08 02:24:34;;;;;;;28.07;19.20;;;;;;;4.34;69.79;100395.77;1774835;80;20998;-74
2021/04/08 02:27:03;;;;;;;24.87;18.98;;;;;;;4.31;69.80;100391.96;1774952;80;21527;-73
2021/04/08 02:29:31;;;;;;;25.43;18.70;;;;;;;4.30;69.89;100398.07;1774928;80;22295;-73
2021/04/08 02:32:01;;;;;;;32.20;20.62;;;;;;;4.29;69.81;100398.95;1774770;80;21018;-73
2021/04/08 02:34:29;;;;;;;30.88;19.65;;;;;;;4.28;70.04;100398.58;1774869;80;20938;-73
2021/04/08 02:36:58;;;;;;;30.75;20.68;;;;;;;4.28;70.13;100405.07;1753214;80;20911;-74
2021/04/08 02:39:27;;;;;;;31.17;22.87;;;;;;;4.31;69.99;100416.63;1774898;80;21342;-72
2021/04/08 02:41:54;;;;;;;26.15;18.62;;;;;;;4.34;69.87;100421.72;1774840;80;21446;-73
2021/04/08 02:44:23;;;;;;;26.37;19.02;;;;;;;4.32;69.65;100420.47;1774787;80;21373;-74
2021/04/08 02:46:51;;;;;;;27.02;16.05;;;;;;;4.31;69.72;100423.98;1774866;80;20958;-74
2021/04/08 02:49:19;;;;;;;15.18;11.90;;;;;;;4.30;69.66;100425.33;1774847;79;20903;-74
2021/04/08 02:52:01;;;;;;;16.85;11.20;;;;;;;4.26;69.62;100432.83;1774840;79;20904;-73
2021/04/08 02:54:50;;;;;;;14.38;10.70;;;;;;;4.20;69.74;100440.83;1774929;79;22340;-73
2021/04/08 02:57:25;;;;;;;13.60;9.60;;;;;;;4.19;69.62;100445.64;1774709;79;21049;-73
2021/04/08 02:59:56;;;;;;;13.85;9.43;;;;;;;4.16;69.61;100456.98;1774816;80;21018;-74
2021/04/08 03:02:27;;;;;;;16.62;11.60;;;;;;;4.12;69.65;100460.59;1774847;80;21428;-74
2021/04/08 03:04:57;;;;;;;16.97;11.35;;;;;;;4.09;69.88;100473.23;1774898;80;20931;-74
2021/04/08 03:07:30;;;;;;;19.55;12.58;;;;;;;4.09;69.74;100482.31;1774860;79;22361;-74
2021/04/08 03:09:58;;;;;;;17.92;12.07;;;;;;;4.09;69.68;100487.92;1774795;80;21377;-74
2021/04/08 03:12:26;;;;;;;16.42;11.15;;;;;;;4.08;69.71;100479.30;1774783;80;20962;-75
2021/04/08 03:14:56;;;;;;;15.03;10.38;;;;;;;4.08;69.53;100475.41;1774796;80;20959;-76
2021/04/08 03:17:31;;;;;;;18.73;10.43;;;;;;;4.08;69.29;100488.37;1729118;80;20979;-77
2021/04/08 03:20:00;;;;;;;16.40;11.12;;;;;;;4.04;69.16;100501.06;1774956;80;21335;-76
2021/04/08 03:22:28;;;;;;;13.48;9.30;;;;;;;4.01;68.94;100502.48;1774802;80;20900;-75
2021/04/08 03:24:57;;;;;;;19.73;10.40;;;;;;;3.95;68.95;100493.60;1774893;80;20934;-76
2021/04/08 03:27:26;;;;;;;17.12;9.15;;;;;;;3.90;69.09;100500.25;1774944;79;21006;-76
2021/04/08 03:29:54;;;;;;;15.35;9.10;;;;;;;3.90;68.99;100505.89;1774984;80;21006;-76
2021/04/08 03:32:23;;;;;;;18.12;9.45;;;;;;;3.89;69.14;100511.54;1774901;80;21370;-76
2021/04/08 03:34:51;;;;;;;18.45;9.40;;;;;;;3.90;69.32;100504.59;1774893;80;20970;-75
2021/04/08 03:37:21;;;;;;;16.80;8.93;;;;;;;3.90;69.19;100508.03;1774906;80;21571;-73
2021/04/08 03:39:49;;;;;;;12.90;7.87;;;;;;;3.93;68.96;100526.53;1786536;80;20974;-74
2021/04/08 03:42:18;;;;;;;15.90;9.85;;;;;;;3.96;68.82;100526.45;1760964;80;20894;-75
2021/04/08 03:44:48;;;;;;;17.15;11.05;;;;;;;4.00;68.57;100527.17;1788759;80;21380;-74
2021/04/08 03:47:15;;;;;;;14.58;10.05;;;;;;;4.03;68.23;100536.16;1788666;79;20942;-74
2021/04/08 03:49:44;;;;;;;15.10;10.23;;;;;;;4.02;68.34;100541.78;1788768;80;20997;-74
2021/04/08 03:52:12;;;;;;;14.07;10.55;;;;;;;4.00;68.50;100550.52;1760538;80;20998;-74
2021/04/08 03:54:41;;;;;;;14.68;9.70;;;;;;;3.94;68.59;100563.27;1788720;80;21036;-75
2021/04/08 03:57:11;;;;;;;17.07;11.48;;;;;;;3.89;68.87;100569.03;1734548;80;21446;-74
2021/04/08 03:59:40;;;;;;;19.23;10.93;;;;;;;3.88;68.76;100585.52;1788798;80;20950;-74
2021/04/08 04:02:08;;;;;;;17.85;10.63;;;;;;;3.90;68.71;100585.86;1788775;80;20977;-73
2021/04/08 04:04:37;;;;;;;16.23;9.78;;;;;;;3.92;68.90;100593.59;1760541;80;21325;-74
2021/04/08 04:07:05;;;;;;;16.27;9.18;;;;;;;3.95;69.08;100598.22;1788837;80;21440;-75
2021/04/08 04:09:33;;;;;;;14.53;11.12;;;;;;;4.02;69.11;100602.75;1760591;80;21189;-74
2021/04/08 04:12:01;;;;;;;16.75;9.78;;;;;;;4.09;68.91;100600.38;1788641;79;21036;-74
2021/04/08 04:14:31;;;;;;;17.25;10.30;;;;;;;4.15;68.71;100596.25;1788618;80;21032;-74
2021/04/08 04:17:00;;;;;;;15.45;10.85;;;;;;;4.23;68.34;100597.31;1788686;79;20942;-72
2021/04/08 04:19:30;;;;;;;21.93;10.72;;;;;;;4.28;68.17;100610.13;1737017;80;20950;-73
2021/04/08 04:21:58;;;;;;;15.32;10.90;;;;;;;4.31;68.16;100621.27;1788714;80;21214;-72
2021/04/08 04:24:26;;;;;;;17.05;11.18;;;;;;;4.35;67.97;100620.23;1788630;80;20970;-72
2021/04/08 04:26:54;;;;;;;15.35;11.28;;;;;;;4.37;67.90;100626.69;1788617;80;21009;-75
2021/04/08 04:29:22;;;;;;;19.67;11.78;;;;;;;4.43;67.90;100629.53;1788937;80;21380;-78
2021/04/08 04:31:50;;;;;;;19.10;11.12;;;;;;;4.51;67.52;100640.48;1788729;79;20943;-78
2021/04/08 04:34:18;;;;;;;18.73;11.05;;;;;;;4.63;67.43;100643.13;1788797;80;22292;-78
2021/04/08 04:36:47;;;;;;;16.07;11.35;;;;;;;4.72;66.95;100642.80;1788666;80;21123;-78
2021/04/08 04:39:16;;;;;;;19.00;11.85;;;;;;;4.84;66.60;100630.66;1781538;80;20971;-76
2021/04/08 04:41:44;;;;;;;18.27;12.68;;;;;;;4.98;66.20;100644.02;1774795;79;21042;-77
2021/04/08 04:44:13;;;;;;;21.10;13.40;;;;;;;5.09;66.01;100654.45;1774899;80;20926;-77
2021/04/08 04:46:41;;;;;;;17.77;12.73;;;;;;;5.19;65.59;100647.55;1774930;79;21186;-77
2021/04/08 04:49:10;;;;;;;26.33;13.62;;;;;;;5.43;65.62;100646.70;1774818;79;20942;-77
2021/04/08 04:51:38;;;;;;;22.60;15.90;;;;;;;5.79;64.94;100640.05;1774888;79;20911;-76
2021/04/08 04:54:06;;;;;;;21.77;15.58;;;;;;;6.19;64.25;100645.44;1774827;79;20930;-77
2021/04/08 04:56:34;;;;;;;30.43;19.40;;;;;;;6.55;62.37;100652.61;1774871;79;21006;-80
2021/04/08 04:59:02;;;;;;;35.75;21.15;;;;;;;6.88;61.51;100650.30;1774819;80;21348;-77
2021/04/08 05:01:31;;;;;;;30.10;22.17;;;;;;;7.21;60.18;100665.36;1774828;79;21017;-76
2021/04/08 05:03:59;;;;;;;32.67;22.35;;;;;;;7.48;57.99;100666.69;1774738;80;20946;-76
2021/04/08 05:06:27;;;;;;;30.85;21.75;;;;;;;7.77;57.34;100662.33;1774788;79;20970;-76
2021/04/08 05:08:56;;;;;;;29.65;20.20;;;;;;;8.12;56.92;100666.32;1775093;80;20951;-78
2021/04/08 05:11:25;;;;;;;31.73;18.55;;;;;;;8.46;55.78;100668.12;1774819;79;21414;-77
2021/04/08 05:13:53;;;;;;;29.32;20.92;;;;;;;8.85;55.37;100663.09;1753225;80;21595;-76
2021/04/08 05:16:21;;;;;;;33.18;20.20;;;;;;;9.15;54.17;100659.78;1774679;80;21125;-78
2021/04/08 05:18:50;;;;;;;27.00;19.55;;;;;;;9.44;53.29;100673.44;1774624;79;21069;-76
2021/04/08 05:21:20;;;;;;;29.57;18.42;;;;;;;9.71;52.44;100669.75;1774837;80;21348;-76
2021/04/08 05:23:48;;;;;;;25.32;17.25;;;;;;;10.07;51.48;100666.46;1753092;80;21533;-77
2021/04/08 05:26:16;;;;;;;22.25;16.32;;;;;;;10.39;50.50;100671.67;1774762;80;20954;-76
2021/04/08 05:28:45;;;;;;;24.47;17.92;;;;;;;10.69;49.96;100676.88;1774864;80;21021;-76
2021/04/08 05:31:13;;;;;;;28.50;18.37;;;;;;;10.93;48.81;100683.27;1774783;79;20994;-76
2021/04/08 05:33:41;;;;;;;30.12;18.48;;;;;;;11.19;49.05;100683.47;1774849;79;20935;-76
2021/04/08 05:36:10;;;;;;;24.12;16.45;;;;;;;11.54;48.42;100681.75;1774838;80;21855;-75
2021/04/08 05:38:38;;;;;;;24.57;17.17;;;;;;;11.85;47.19;100691.59;1775918;80;20998;-75
2021/04/08 05:41:07;;;;;;;27.65;15.18;;;;;;;12.19;45.68;100694.25;1788666;79;21024;-74
2021/04/08 05:43:37;;;;;;;25.68;16.80;;;;;;;12.46;44.79;100696.00;1788650;80;20902;-75
2021/04/08 05:46:09;;;;;;;27.42;18.05;;;;;;;12.63;44.27;100703.12;1788642;80;20914;-74
2021/04/08 05:48:37;;;;;;;22.65;13.53;;;;;;;12.81;43.67;100694.45;1788642;80;21818;-75
2021/04/08 05:51:06;;;;;;;19.65;14.40;;;;;;;13.12;43.21;100700.73;1788531;80;20958;-76
2021/04/08 05:53:35;;;;;;;24.63;14.95;;;;;;;13.42;43.32;100697.27;1788616;80;20926;-73
2021/04/08 05:56:04;;;;;;;24.67;15.75;;;;;;;13.79;42.78;100700.41;1788619;80;21526;-74
2021/04/08 05:58:32;;;;;;;27.15;16.20;;;;;;;14.16;41.30;100694.62;1788622;80;20989;-75
2021/04/08 06:01:00;;;;;;;18.37;12.55;;;;;;;14.38;40.05;100693.00;1788630;79;21789;-75
2021/04/08 06:03:28;;;;;;;15.78;10.85;;;;;;;14.45;40.13;100691.58;1788593;80;20947;-77
2021/04/08 06:05:56;;;;;;;11.25;7.75;;;;;;;14.68;39.73;100693.84;1788576;79;20942;-75
2021/04/08 06:08:26;;;;;;;7.92;5.95;;;;;;;14.84;39.29;100687.74;1788402;80;20954;-76
2021/04/08 06:10:55;;;;;;;8.98;6.47;;;;;;;15.04;38.35;100696.77;1788697;80;20930;-74
2021/04/08 06:13:23;;;;;;;8.20;5.40;;;;;;;15.25;38.73;100698.69;1788707;80;21767;-80
2021/04/08 06:15:54;;;;;;;7.67;5.42;;;;;;;15.45;37.76;100699.77;1788680;80;20977;-80
2021/04/08 06:18:24;;;;;;;7.10;5.50;;;;;;;15.67;38.07;100701.08;1788850;80;21009;-81
2021/04/08 06:20:52;;;;;;;5.95;4.90;;;;;;;16.03;37.40;100705.70;1788674;79;21029;-79
2021/04/08 06:23:21;;;;;;;4.42;4.03;;;;;;;16.40;36.58;100701.82;1788719;79;21040;-82
2021/04/08 06:25:49;;;;;;;4.85;4.17;;;;;;;16.73;36.55;100709.58;1788945;80;21372;-81
2021/04/08 06:28:17;;;;;;;5.60;4.50;;;;;;;16.92;35.92;100708.90;1788967;80;21026;-82
2021/04/08 06:30:46;;;;;;;4.55;3.95;;;;;;;17.10;35.24;100714.92;1788830;80;20982;-80
2021/04/08 06:33:15;;;;;;;6.97;4.45;;;;;;;17.37;34.82;100717.82;1789119;79;20997;-82
2021/04/08 06:35:43;;;;;;;4.47;3.95;;;;;;;17.59;33.46;100712.80;1789522;80;20954;-81
2021/04/08 06:38:12;;;;;;;5.08;4.20;;;;;;;17.71;33.29;100714.84;1789671;79;21191;-83
2021/04/08 06:40:40;;;;;;;7.17;4.25;;;;;;;17.83;33.29;100719.61;1789434;80;20903;-80
2021/04/08 06:43:11;;;;;;;4.28;3.20;;;;;;;17.97;32.61;100715.22;1789837;80;20926;-82
2021/04/08 06:45:45;;;;;;;5.30;3.83;;;;;;;18.12;32.11;100718.78;1789811;79;20942;-83
2021/04/08 06:48:26;;;;;;;6.58;4.00;;;;;;;18.08;31.46;100711.59;1789450;80;21680;-81
2021/04/08 06:50:54;;;;;;;6.00;3.87;;;;;;;18.00;32.24;100713.59;1789229;80;22339;-84
2021/04/08 06:53:24;;;;;;;4.50;4.10;;;;;;;18.09;31.89;100725.70;1789243;78;21069;-82
2021/04/08 06:55:55;;;;;;;4.03;3.62;;;;;;;18.17;32.50;100724.03;1788932;80;21439;-81
2021/04/08 06:58:24;;;;;;;4.30;3.70;;;;;;;18.30;31.43;100732.23;1789012;80;20998;-83
2021/04/08 07:00:54;;;;;;;7.22;4.00;;;;;;;18.14;30.63;100742.91;1786562;79;20926;-80
2021/04/08 07:03:25;;;;;;;4.75;4.12;;;;;;;17.98;31.60;100739.93;1788859;80;21427;-81
2021/04/08 07:05:53;;;;;;;5.05;4.33;;;;;;;17.88;30.98;100747.05;1760923;80;20966;-80
2021/04/08 07:08:22;;;;;;;4.50;3.65;;;;;;;17.77;30.98;100743.98;1789120;79;21045;-78
2021/04/08 07:10:54;;;;;;;4.53;3.70;;;;;;;17.76;31.05;100747.13;1788675;79;21029;-82
2021/04/08 07:13:31;;;;;;;4.50;3.72;;;;;;;17.81;30.14;100743.61;1789062;79;20985;-82
2021/04/08 07:16:00;;;;;;;7.08;3.40;;;;;;;17.76;30.50;100747.13;1789823;79;21149;-76
2021/04/08 07:18:28;;;;;;;4.95;3.30;;;;;;;17.76;31.33;100755.09;1792576;79;20887;-74
2021/04/08 07:20:57;;;;;;;5.42;3.30;;;;;;;17.76;29.88;100751.58;1790807;80;20946;-74
2021/04/08 07:23:26;;;;;;;4.85;3.47;;;;;;;17.87;30.37;100753.31;1789125;80;20922;-72
2021/04/08 07:26:11;;;;;;;5.35;4.03;;;;;;;18.06;31.58;100759.16;1788921;80;20986;-73
2021/04/08 07:28:41;;;;;;;5.12;4.40;;;;;;;18.25;30.23;100752.53;1788864;80;21363;-72
2021/04/08 07:31:28;;;;;;;6.72;4.00;;;;;;;18.22;30.93;100747.02;1788962;79;21356;-74
2021/04/08 07:37:58;;;;;;;4.40;3.70;;;;;;;18.34;30.20;100757.03;1760212;80;21411;-73
2021/04/08 07:40:27;;;;;;;4.75;3.77;;;;;;;18.25;30.93;100771.11;1759774;81;20950;-73
2021/04/08 07:43:04;;;;;;;5.75;3.40;;;;;;;18.21;30.81;100786.98;1760378;81;21005;-73
2021/04/08 07:45:33;;;;;;;6.80;4.20;;;;;;;18.09;30.50;100775.63;1709378;81;21459;-76
2021/04/08 07:48:05;;;;;;;6.58;3.77;;;;;;;17.88;30.70;100777.06;1757091;81;21080;-75
2021/04/08 07:50:36;;;;;;;7.03;3.90;;;;;;;17.81;29.85;100791.82;1757118;81;21001;-74
2021/04/08 07:53:05;;;;;;;5.22;3.62;;;;;;;17.65;30.49;100798.92;1757113;81;21014;-71
2021/04/08 07:55:36;;;;;;;3.60;2.77;;;;;;;17.49;29.30;100809.20;1757085;81;21259;-72
2021/04/08 07:58:12;;;;;;;4.50;3.55;;;;;;;17.12;29.48;100813.19;1757015;81;21107;-73
2021/04/08 08:00:50;;;;;;;3.20;2.83;;;;;;;16.56;29.08;100808.98;1762557;80;21009;-72
2021/04/08 08:03:26;;;;;;;6.60;3.25;;;;;;;16.29;30.25;100816.51;1788680;80;20935;-72
2021/04/08 08:06:01;;;;;;;4.87;3.37;;;;;;;16.31;30.19;100807.96;1788776;79;21017;-72
2021/04/08 08:08:45;;;;;;;3.15;2.85;;;;;;;16.40;31.28;100804.56;1788287;79;21373;-73
2021/04/08 08:11:15;;;;;;;4.12;3.15;;;;;;;16.48;30.58;100810.08;1788641;80;21097;-72
2021/04/08 08:13:55;;;;;;;5.28;4.37;;;;;;;16.66;29.62;100802.42;1788631;80;21005;-72
2021/04/08 08:16:27;;;;;;;4.85;2.65;;;;;;;16.90;28.99;100803.55;1788627;79;21029;-72
2021/04/08 08:18:59;;;;;;;4.10;3.30;;;;;;;17.03;29.22;100801.18;1788724;80;21013;-73
2021/04/08 08:21:38;;;;;;;4.67;3.40;;;;;;;17.12;28.60;100801.27;1788644;80;21136;-74
2021/04/08 08:28:01;;;;;;;3.37;2.92;;;;;;;16.89;28.50;100798.38;1788693;80;21041;-71
2021/04/08 08:30:52;;;;;;;5.80;2.52;;;;;;;16.51;29.42;100808.49;1788677;80;20926;-72
2021/04/08 08:33:12;;;;;;;4.10;3.25;;;;;;;16.34;29.78;100802.41;1785741;80;20973;-71
2021/04/08 08:35:41;;;;;;;5.45;2.62;;;;;;;16.22;30.42;100798.12;1788751;80;21107;-71
2021/04/08 08:38:15;;;;;;;4.55;3.12;;;;;;;16.19;30.02;100803.68;1788684;80;20942;-71
2021/04/08 08:40:44;;;;;;;3.20;2.90;;;;;;;16.21;29.86;100801.27;1780234;80;21034;-70
2021/04/08 08:47:19;;;;;;;6.55;3.25;;;;;;;15.92;30.55;100815.51;1775011;80;20935;-71
2021/04/08 08:53:20;;;;;;;4.22;3.02;;;;;;;15.91;29.94;100812.00;1774816;80;21042;-72
2021/04/08 08:55:50;;;;;;;3.25;2.70;;;;;;;15.85;30.00;100809.00;1774832;80;20907;-72
2021/04/08 08:58:18;;;;;;;3.72;3.27;;;;;;;15.97;31.03;100808.52;1774738;80;20899;-71
2021/04/08 09:00:46;;;;;;;6.17;3.40;;;;;;;15.82;30.25;100805.28;1774903;79;20935;-70
2021/04/08 09:03:14;;;;;;;6.22;3.30;;;;;;;15.70;30.89;100799.97;1753202;80;22392;-73
2021/04/08 09:12:15;;;;;;;4.67;2.60;;;;;;;15.66;29.95;100813.55;1717058;79;21646;-69
2021/04/08 09:14:48;;;;;;;3.02;2.72;;;;;;;15.69;29.91;100814.14;1628099;85;21144;-69
2021/04/08 09:17:43;;;;;;;4.83;2.72;;;;;;;15.87;30.23;100813.20;1586246;85;21030;-71
2021/04/08 09:20:19;;;;;;;4.65;2.52;;;;;;;16.23;30.28;100817.86;1650610;85;21058;-68
2021/04/08 09:23:01;;;;;;;3.17;2.37;;;;;;;16.64;28.77;100810.98;1675997;85;20975;-68
2021/04/08 09:25:42;;;;;;;3.33;3.03;;;;;;;16.85;29.28;100805.76;1676190;85;21074;-72
2021/04/08 09:28:14;;;;;;;4.70;2.83;;;;;;;17.11;28.40;100815.95;1675619;85;21599;-67
2021/04/08 09:33:50;;;;;;;3.70;2.72;;;;;;;17.14;28.24;100822.31;1675959;85;21071;-67
2021/04/08 09:36:25;;;;;;;3.77;2.50;;;;;;;16.99;28.70;100817.34;1675965;85;20980;-68
2021/04/08 09:39:04;;;;;;;3.52;2.40;;;;;;;16.92;28.49;100821.48;1675924;85;21095;-67
2021/04/08 09:42:01;;;;;;;2.90;2.08;;;;;;;16.73;26.78;100821.30;1675851;84;21047;-67
2021/04/08 09:44:27;;;;;;;3.87;2.67;;;;;;;16.59;27.11;100819.80;1676283;85;21358;-69
2021/04/08 09:47:00;;;;;;;6.92;3.10;;;;;;;16.29;28.00;100813.86;1628136;85;21004;-68
2021/04/08 09:49:42;;;;;;;3.20;2.90;;;;;;;16.11;27.87;100813.54;1676008;85;20948;-68
2021/04/08 09:52:13;;;;;;;3.62;2.85;;;;;;;15.99;27.87;100805.28;1675938;85;21031;-68
2021/04/08 09:54:55;;;;;;;3.17;2.80;;;;;;;15.87;28.43;100805.75;1675995;85;21023;-67
2021/04/08 09:57:38;;;;;;;3.80;3.25;;;;;;;15.82;27.99;100806.12;1675985;85;21212;-68
2021/04/08 10:00:16;;;;;;;3.67;2.55;;;;;;;15.74;28.34;100812.52;1676130;85;21015;-69
2021/04/08 10:03:06;;;;;;;4.90;2.65;;;;;;;15.73;27.82;100812.97;1675927;85;21031;-67
2021/04/08 10:05:41;;;;;;;3.80;2.35;;;;;;;15.68;27.54;100794.45;1675960;84;20992;-67
2021/04/08 10:08:09;;;;;;;4.00;2.62;;;;;;;15.37;27.55;100792.04;1676351;85;21414;-68
2021/04/08 10:10:42;;;;;;;2.15;1.85;;;;;;;15.01;27.96;100800.02;1675962;85;21004;-69
2021/04/08 10:13:28;;;;;;;4.97;2.37;;;;;;;14.85;28.17;100796.37;1684163;84;21507;-68
2021/04/08 10:15:59;;;;;;;3.40;2.02;;;;;;;14.96;30.00;100814.52;1723778;79;21037;-79
2021/04/08 10:18:32;;;;;;;7.90;2.65;;;;;;;14.96;30.00;100814.52;1739168;79;20915;-78
2021/04/08 10:21:05;;;;;;;2.42;1.70;;;;;;;15.12;30.64;100821.66;1746231;79;20957;-80
2021/04/08 10:23:38;;;;;;;2.62;2.08;;;;;;;15.05;28.28;100819.97;1707200;80;21255;-77
2021/04/08 10:26:20;;;;;;;1.45;1.30;;;;;;;14.87;29.18;100818.69;1660084;80;21052;-74
2021/04/08 10:28:54;;;;;;;4.55;2.27;;;;;;;14.74;28.77;100816.14;1723324;82;21001;-65
2021/04/08 10:31:30;;;;;;;2.05;1.60;;;;;;;14.79;29.19;100825.04;1723021;80;21039;-66
2021/04/08 10:34:20;;;;;;;2.20;1.72;;;;;;;14.88;29.29;100818.58;1736369;82;21075;-71
2021/04/08 10:36:54;;;;;;;3.05;1.92;;;;;;;14.92;28.01;100820.53;1728730;83;21571;-67
2021/04/08 10:39:27;;;;;;;2.55;1.90;;;;;;;14.74;28.49;100824.06;1736168;82;21530;-68
2021/04/08 10:42:12;;;;;;;3.17;2.15;;;;;;;14.77;26.74;100822.98;1736222;82;20913;-65
2021/04/08 10:44:47;;;;;;;2.50;2.12;;;;;;;14.77;26.74;100822.98;1736256;82;21056;-66
2021/04/08 10:47:23;;;;;;;2.40;1.72;;;;;;;14.65;27.80;100848.02;1736401;82;21341;-69
2021/04/08 10:49:57;;;;;;;2.77;1.98;;;;;;;14.43;27.72;100840.80;1736265;82;21214;-67
2021/04/08 10:55:25;;;;;;;2.02;1.82;;;;;;;14.43;29.01;100841.28;1816079;79;22106;-67
2021/04/08 10:57:54;;;;;;;3.87;2.55;;;;;;;14.36;29.50;100850.12;1789250;80;20989;-67
2021/04/08 11:00:24;;;;;;;4.22;3.30;;;;;;;14.37;29.22;100860.19;1789052;79;21191;-68
2021/04/08 11:02:53;;;;;;;4.40;3.10;;;;;;;14.31;28.89;100867.56;1789133;80;21034;-70
2021/04/08 11:05:26;;;;;;;3.80;2.20;;;;;;;14.31;28.89;100867.56;1789100;79;20994;-66
2021/04/08 11:07:57;;;;;;;4.10;2.05;;;;;;;14.31;29.68;100866.25;1789135;80;21396;-66
2021/04/08 11:13:07;;;;;;;3.17;1.82;;;;;;;14.36;30.06;100863.77;1789110;79;21299;-66
2021/04/08 11:15:38;;;;;;;4.12;1.98;;;;;;;14.43;29.25;100865.03;1789074;80;21001;-66
2021/04/08 11:18:13;;;;;;;3.75;2.77;;;;;;;14.29;29.24;100869.50;1789114;79;20922;-66
2021/04/08 11:20:46;;;;;;;3.40;2.30;;;;;;;13.72;29.57;100869.14;1789076;80;21064;-66
2021/04/08 11:23:18;;;;;;;3.40;2.55;;;;;;;13.72;29.57;100869.14;1789069;79;20958;-66
2021/04/08 11:26:06;;;;;;;2.75;2.05;;;;;;;13.48;29.61;100873.37;1789102;80;21792;-67
2021/04/08 11:28:47;;;;;;;3.60;2.90;;;;;;;13.34;31.08;100873.92;1781284;80;20903;-67
2021/04/08 11:31:18;;;;;;;2.60;2.20;;;;;;;13.34;31.17;100869.97;1785164;79;21336;-67
2021/04/08 11:33:59;;;;;;;3.05;2.20;;;;;;;13.44;31.31;100871.05;1788940;80;20942;-70
2021/04/08 11:36:31;;;;;;;3.98;2.52;;;;;;;13.53;30.09;100876.17;1788814;79;21084;-67
2021/04/08 11:39:11;;;;;;;4.97;2.27;;;;;;;13.66;30.67;100879.65;1789000;79;21185;-66
2021/04/08 11:41:39;;;;;;;3.72;2.67;;;;;;;13.75;30.64;100884.28;1788967;79;20954;-68
2021/04/08 11:44:08;;;;;;;5.62;2.37;;;;;;;13.83;30.89;100877.17;1789070;80;20919;-65
2021/04/08 11:46:40;;;;;;;7.33;2.95;;;;;;;13.87;30.78;100879.49;1733850;80;20930;-65
2021/04/08 11:49:19;;;;;;;4.67;2.65;;;;;;;13.86;30.05;100875.16;1789043;80;20934;-67
2021/04/08 11:51:48;;;;;;;6.75;2.90;;;;;;;13.73;30.23;100874.80;1788966;79;21640;-68
2021/04/08 11:54:18;;;;;;;4.75;2.58;;;;;;;13.61;30.06;100881.28;1783400;79;20941;-65
2021/04/08 11:56:48;;;;;;;5.45;2.62;;;;;;;13.56;30.73;100886.48;1775592;80;20927;-65
2021/04/08 11:59:21;;;;;;;2.27;2.05;;;;;;;13.58;30.62;100889.38;1775426;80;20958;-66
2021/04/08 12:01:54;;;;;;;6.10;2.42;;;;;;;13.55;30.48;100889.60;1775546;80;20895;-66
2021/04/08 12:04:26;;;;;;;6.53;2.80;;;;;;;13.55;30.49;100890.92;1775569;80;21309;-65
2021/04/08 12:07:06;;;;;;;3.25;2.95;;;;;;;13.58;31.05;100884.59;1774867;79;20950;-65
2021/04/08 12:09:36;;;;;;;5.28;3.27;;;;;;;13.54;30.15;100873.89;1774926;80;21014;-67
2021/04/08 12:12:06;;;;;;;3.45;2.67;;;;;;;13.51;31.58;100876.27;1774950;80;20939;-66